createdAt,value
2018-06-08T00:00:35.960Z,95188.00
2018-06-08T00:03:05.990Z,95190.00
2018-06-08T00:05:36.154Z,95180.00
2018-06-08T00:08:06.236Z,95181.00
2018-06-08T00:10:36.173Z,95175.00
2018-06-08T00:13:06.242Z,95177.00
2018-06-08T00:15:36.270Z,95167.00
2018-06-08T00:18:06.287Z,95168.00
2018-06-08T00:20:36.286Z,95158.00
2018-06-08T00:23:06.259Z,95150.00
2018-06-08T00:25:36.420Z,95148.00
2018-06-08T00:28:06.466Z,95140.00
2018-06-08T00:30:36.522Z,95140.00
2018-06-08T00:33:06.482Z,95138.00
2018-06-08T00:35:36.399Z,95135.00
2018-06-08T00:38:06.532Z,95133.00
2018-06-08T00:40:36.492Z,95134.00
2018-06-08T00:43:06.510Z,95137.00
2018-06-08T00:45:36.489Z,95136.00
2018-06-08T00:48:06.661Z,95140.00
2018-06-08T00:50:36.551Z,95141.00
2018-06-08T00:53:06.578Z,95132.00
2018-06-08T00:55:37.937Z,95136.00
2018-06-08T00:58:06.954Z,95127.00
2018-06-08T01:00:36.726Z,95122.00
2018-06-08T01:03:06.800Z,95126.00
2018-06-08T01:05:36.683Z,95115.00
2018-06-08T01:08:06.701Z,95116.00
2018-06-08T01:10:36.789Z,95112.00
2018-06-08T01:13:06.806Z,95111.00
2018-06-08T01:15:36.765Z,95112.00
2018-06-08T01:18:06.910Z,95107.00
2018-06-08T01:20:36.989Z,95105.00
2018-06-08T01:23:07.024Z,95101.00
2018-06-08T01:25:36.905Z,95091.00
2018-06-08T01:28:07.026Z,95088.00
2018-06-08T01:30:36.951Z,95083.00
2018-06-08T01:33:07.011Z,95084.00
2018-06-08T01:35:37.013Z,95082.00
2018-06-08T01:38:07.071Z,95077.00
2018-06-08T01:40:37.058Z,95077.00
2018-06-08T01:43:07.088Z,95073.00
2018-06-08T01:45:37.110Z,95072.00
2018-06-08T01:48:07.250Z,95078.00
2018-06-08T01:50:37.270Z,95083.00
2018-06-08T01:53:07.290Z,95080.00
2018-06-08T01:55:37.237Z,95084.00
2018-06-08T01:58:07.270Z,95087.00
2018-06-08T02:00:37.317Z,95097.00
2018-06-08T02:03:07.330Z,95095.00
2018-06-08T02:05:37.479Z,95100.00
2018-06-08T02:08:07.418Z,95098.00
2018-06-08T02:10:41.046Z,95103.00
2018-06-08T02:13:10.054Z,95091.00
2018-06-08T02:15:39.054Z,95105.00
2018-06-08T02:18:08.081Z,95096.00
2018-06-08T02:20:37.593Z,95102.00
2018-06-08T02:23:07.677Z,95102.00
2018-06-08T02:25:37.641Z,95103.00
2018-06-08T02:28:07.708Z,95110.00
2018-06-08T02:30:37.706Z,95106.00
2018-06-08T02:33:07.991Z,95108.00
2018-06-08T02:35:37.796Z,95101.00
2018-06-08T02:38:07.900Z,95112.00
2018-06-08T02:40:37.897Z,95106.00
2018-06-08T02:43:07.878Z,95123.00
2018-06-08T02:45:37.906Z,95128.00
2018-06-08T02:48:07.937Z,95130.00
2018-06-08T02:50:37.978Z,95122.00
2018-06-08T02:53:08.379Z,95118.00
2018-06-08T02:55:38.096Z,95119.00
2018-06-08T02:58:08.116Z,95115.00
2018-06-08T03:00:38.081Z,95119.00
2018-06-08T03:03:08.094Z,95118.00
2018-06-08T03:05:38.219Z,95117.00
2018-06-08T03:08:08.150Z,95107.00
2018-06-08T03:10:38.326Z,95118.00
2018-06-08T03:13:08.310Z,95128.00
2018-06-08T03:15:38.255Z,95128.00
2018-06-08T03:18:08.345Z,95125.00
2018-06-08T03:20:38.318Z,95123.00
2018-06-08T03:23:07.317Z,95117.00
2018-06-08T03:25:36.354Z,95116.00
2018-06-08T03:28:05.529Z,95119.00
2018-06-08T03:30:34.518Z,95116.00
2018-06-08T03:33:03.585Z,95117.00
2018-06-08T03:35:32.637Z,95115.00
2018-06-08T03:38:01.649Z,95122.00
2018-06-08T03:40:30.730Z,95116.00
2018-06-08T03:42:59.593Z,95116.00
2018-06-08T03:45:28.719Z,95115.00
2018-06-08T03:47:57.806Z,95117.00
2018-06-08T03:50:26.896Z,95117.00
2018-06-08T03:52:55.894Z,95115.00
2018-06-08T03:55:24.973Z,95115.00
2018-06-08T03:57:54.074Z,95118.00
2018-06-08T04:00:23.162Z,95112.00
2018-06-08T04:02:52.150Z,95123.00
2018-06-08T04:05:21.162Z,95118.00
2018-06-08T04:07:50.749Z,95124.00
2018-06-08T04:10:19.858Z,95124.00
2018-06-08T04:12:49.785Z,95114.00
2018-06-08T04:15:18.786Z,95110.00
2018-06-08T04:17:47.858Z,95105.00
2018-06-08T04:20:16.853Z,95107.00
2018-06-08T04:22:45.856Z,95100.00
2018-06-08T04:25:14.853Z,95093.00
2018-06-08T04:27:43.806Z,95100.00
2018-06-08T04:30:12.811Z,95099.00
2018-06-08T04:32:41.842Z,95092.00
2018-06-08T04:35:10.898Z,95100.00
2018-06-08T04:37:39.881Z,95102.00
2018-06-08T04:40:09.728Z,95092.00
2018-06-08T04:42:38.809Z,95101.00
2018-06-08T04:45:07.800Z,95098.00
2018-06-08T04:47:36.794Z,95100.00
2018-06-08T04:50:05.870Z,95097.00
2018-06-08T04:52:34.973Z,95093.00
2018-06-08T04:55:03.953Z,95107.00
2018-06-08T04:57:32.953Z,95110.00
2018-06-08T05:00:01.938Z,95113.00
2018-06-08T05:02:30.954Z,95114.00
2018-06-08T05:05:00.050Z,95119.00
2018-06-08T05:07:29.030Z,95116.00
2018-06-08T05:09:58.142Z,95116.00
2018-06-08T05:12:27.214Z,95117.00
2018-06-08T05:14:56.342Z,95131.00
2018-06-08T05:17:25.421Z,95128.00
2018-06-08T05:19:54.418Z,95130.00
2018-06-08T05:22:23.409Z,95131.00
2018-06-08T05:24:52.495Z,95139.00
2018-06-08T05:27:21.489Z,95139.00
2018-06-08T05:29:50.494Z,95142.00
2018-06-08T05:32:19.486Z,95154.00
2018-06-08T05:34:48.568Z,95145.00
2018-06-08T05:37:17.577Z,95159.00
2018-06-08T05:39:46.563Z,95159.00
2018-06-08T05:42:15.597Z,95154.00
2018-06-08T05:44:44.595Z,95156.00
2018-06-08T05:47:13.581Z,95167.00
2018-06-08T05:49:42.577Z,95157.00
2018-06-08T05:52:11.565Z,95163.00
2018-06-08T05:54:40.560Z,95159.00
2018-06-08T05:57:09.574Z,95161.00
2018-06-08T05:59:38.564Z,95162.00
2018-06-08T06:02:07.605Z,95160.00
2018-06-08T06:04:36.665Z,95155.00
2018-06-08T06:07:05.998Z,95141.00
2018-06-08T06:09:35.072Z,95147.00
2018-06-08T06:12:04.065Z,95150.00
2018-06-08T06:14:33.075Z,95148.00
2018-06-08T06:17:02.187Z,95145.00
2018-06-08T06:19:31.378Z,95151.00
2018-06-08T06:22:00.494Z,95154.00
2018-06-08T06:24:29.594Z,95162.00
2018-06-08T06:26:58.678Z,95156.00
2018-06-08T06:29:27.882Z,95156.00
2018-06-08T06:31:57.020Z,95155.00
2018-06-08T06:34:26.098Z,95157.00
2018-06-08T06:36:55.234Z,95152.00
2018-06-08T06:39:24.317Z,95151.00
2018-06-08T06:41:53.501Z,95145.00
2018-06-08T06:44:22.509Z,95137.00
2018-06-08T06:46:51.562Z,95153.00
2018-06-08T06:49:20.754Z,95140.00
2018-06-08T06:51:49.866Z,95140.00
2018-06-08T06:54:18.846Z,95131.00
2018-06-08T06:56:47.902Z,95129.00
2018-06-08T06:59:19.065Z,95129.00
2018-06-08T07:01:47.885Z,95125.00
2018-06-08T07:04:16.874Z,95126.00
2018-06-08T07:06:46.034Z,95124.00
2018-06-08T07:09:15.214Z,95124.00
2018-06-08T07:11:44.255Z,95119.00
2018-06-08T07:14:13.326Z,95122.00
2018-06-08T07:16:42.359Z,95119.00
2018-06-08T07:19:11.510Z,95126.00
2018-06-08T07:21:40.498Z,95131.00
2018-06-08T07:24:09.770Z,95125.00
2018-06-08T07:26:38.969Z,95121.00
2018-06-08T07:29:08.150Z,95123.00
2018-06-08T07:31:37.197Z,95128.00
2018-06-08T07:34:06.237Z,95131.00
2018-06-08T07:36:35.230Z,95131.00
2018-06-08T07:39:07.618Z,95126.00
2018-06-08T07:41:36.895Z,95123.00
2018-06-08T07:44:05.891Z,95124.00
2018-06-08T07:46:34.953Z,95114.00
2018-06-08T07:49:04.113Z,95112.00
2018-06-08T07:51:33.360Z,95119.00
2018-06-08T07:54:05.532Z,95116.00
2018-06-08T07:56:34.698Z,95110.00
2018-06-08T07:59:03.838Z,95117.00
2018-06-08T08:01:32.916Z,95117.00
2018-06-08T08:04:01.998Z,95122.00
2018-06-08T08:06:31.059Z,95118.00
2018-06-08T08:09:00.313Z,95118.00
2018-06-08T08:11:29.311Z,95100.00
2018-06-08T08:13:58.564Z,95097.00
2018-06-08T08:16:27.603Z,95093.00
2018-06-08T08:18:56.738Z,95093.00
2018-06-08T08:21:25.812Z,95089.00
2018-06-08T08:23:54.968Z,95086.00
2018-06-08T08:26:24.136Z,95085.00
2018-06-08T08:28:53.286Z,95085.00
2018-06-08T08:31:22.282Z,95081.00
2018-06-08T08:33:51.466Z,95079.00
2018-06-08T08:36:20.598Z,95081.00
2018-06-08T08:38:49.792Z,95085.00
2018-06-08T08:41:18.869Z,95084.00
2018-06-08T08:43:48.031Z,95088.00
2018-06-08T08:46:17.211Z,95095.00
2018-06-08T08:48:46.258Z,95098.00
2018-06-08T08:51:15.309Z,95087.00
2018-06-08T08:53:44.286Z,95099.00
2018-06-08T08:56:13.462Z,95104.00
2018-06-08T08:58:43.297Z,95101.00
2018-06-08T09:01:12.302Z,95101.00
2018-06-08T09:03:41.414Z,95100.00
2018-06-08T09:06:10.537Z,95095.00
2018-06-08T09:08:39.526Z,95091.00
2018-06-08T09:11:08.667Z,95097.00
2018-06-08T09:13:37.872Z,95097.00
2018-06-08T09:16:07.258Z,95092.00
2018-06-08T09:18:36.386Z,95088.00
2018-06-08T09:21:05.450Z,95087.00
2018-06-08T09:23:34.646Z,95087.00
2018-06-08T09:26:03.726Z,95084.00
2018-06-08T09:28:32.857Z,95082.00
2018-06-08T09:31:01.894Z,95085.00
2018-06-08T09:33:30.910Z,95079.00
2018-06-08T09:35:59.935Z,95078.00
2018-06-08T09:38:29.056Z,95068.00
2018-06-08T09:40:58.219Z,95080.00
2018-06-08T09:43:27.228Z,95068.00
2018-06-08T09:45:56.286Z,95074.00
2018-06-08T09:48:25.386Z,95068.00
2018-06-08T09:50:54.562Z,95063.00
2018-06-08T09:53:23.730Z,95061.00
2018-06-08T09:55:52.737Z,95054.00
2018-06-08T09:58:21.722Z,95045.00
2018-06-08T10:00:50.880Z,95046.00
2018-06-08T10:03:21.675Z,95048.00
2018-06-08T10:05:50.666Z,95048.00
2018-06-08T10:08:19.658Z,95029.00
2018-06-08T10:10:48.658Z,95036.00
2018-06-08T10:13:17.647Z,95032.00
2018-06-08T10:15:46.650Z,95025.00
2018-06-08T10:18:15.634Z,95025.00
2018-06-08T10:20:44.625Z,95016.00
2018-06-08T10:23:13.605Z,95023.00
2018-06-08T10:25:43.080Z,95022.00
2018-06-08T10:28:12.150Z,95009.00
2018-06-08T10:30:41.182Z,95002.00
2018-06-08T10:33:10.170Z,95009.00
2018-06-08T10:35:39.153Z,95010.00
2018-06-08T10:38:08.145Z,95015.00
2018-06-08T10:40:37.165Z,95017.00
2018-06-08T10:43:06.166Z,95023.00
2018-06-08T10:45:36.344Z,95018.00
2018-06-08T10:48:05.534Z,95018.00
2018-06-08T10:50:34.574Z,95012.00
2018-06-08T10:53:03.580Z,95014.00
2018-06-08T10:55:32.569Z,95014.00
2018-06-08T10:58:01.691Z,95009.00
2018-06-08T11:00:30.780Z,95011.00
2018-06-08T11:02:59.853Z,95002.00
2018-06-08T11:05:28.905Z,94994.00
2018-06-08T11:07:57.933Z,94993.00
2018-06-08T11:10:26.933Z,94991.00
2018-06-08T11:12:55.929Z,94990.00
2018-06-08T11:15:24.929Z,94987.00
2018-06-08T11:17:54.030Z,94989.00
2018-06-08T11:20:23.118Z,94996.00
2018-06-08T11:22:52.108Z,94995.00
2018-06-08T11:25:21.102Z,94994.00
2018-06-08T11:27:50.118Z,94990.00
2018-06-08T11:30:18.958Z,94992.00
2018-06-08T11:32:47.958Z,94987.00
2018-06-08T11:35:16.937Z,94988.00
2018-06-08T11:37:45.959Z,94983.00
2018-06-08T11:40:14.976Z,94971.00
2018-06-08T11:42:43.990Z,94964.00
2018-06-08T11:45:13.054Z,94951.00
2018-06-08T11:47:42.068Z,94957.00
2018-06-08T11:50:11.065Z,94960.00
2018-06-08T11:52:40.154Z,94958.00
2018-06-08T11:55:09.059Z,94948.00
2018-06-08T11:57:38.312Z,94949.00
2018-06-08T12:00:07.426Z,94938.00
2018-06-08T12:02:36.506Z,94940.00
2018-06-08T12:05:05.504Z,94938.00
2018-06-08T12:25:31.058Z,94917.00
2018-06-08T12:28:00.205Z,94911.00
2018-06-08T12:30:29.317Z,94904.00
2018-06-08T12:32:58.469Z,94895.00
2018-06-08T12:35:27.611Z,94900.00
2018-06-08T12:38:17.835Z,94887.00
2018-06-08T12:43:37.775Z,94880.00
2018-06-08T12:46:06.938Z,94875.00
2018-06-08T12:48:36.120Z,94883.00
2018-06-08T12:51:05.324Z,94870.00
2018-06-08T12:53:34.426Z,94872.00
2018-06-08T12:56:03.582Z,94870.00
2018-06-08T12:58:32.722Z,94873.00
2018-06-08T13:01:01.894Z,94867.00
2018-06-08T13:03:31.113Z,94860.00
2018-06-08T13:06:00.294Z,94853.00
2018-06-08T13:08:29.517Z,94858.00
2018-06-08T13:10:58.617Z,94851.00
2018-06-08T13:13:27.847Z,94859.00
2018-06-08T13:15:57.057Z,94852.00
2018-06-08T13:18:26.132Z,94856.00
2018-06-08T13:20:55.374Z,94849.00
2018-06-08T13:23:24.570Z,94850.00
2018-06-08T13:25:54.916Z,94841.00
2018-06-08T13:28:24.100Z,94843.00
2018-06-08T13:30:53.271Z,94842.00
2018-06-08T13:33:22.477Z,94840.00
2018-06-08T13:35:51.689Z,94839.00
2018-06-08T13:38:20.933Z,94842.00
2018-06-08T13:40:50.134Z,94840.00
2018-06-08T13:43:19.320Z,94838.00
2018-06-08T13:45:48.453Z,94837.00
2018-06-08T13:48:17.669Z,94849.00
2018-06-08T13:50:46.926Z,94848.00
2018-06-08T13:53:16.534Z,94842.00
2018-06-08T13:55:46.614Z,94839.00
2018-06-08T13:58:16.630Z,94838.00
2018-06-08T14:00:46.702Z,94836.00
2018-06-08T14:03:16.647Z,94831.00
2018-06-08T14:05:46.721Z,94832.00
2018-06-08T14:08:16.890Z,94830.00
2018-06-08T14:10:46.690Z,94834.00
2018-06-08T14:13:16.849Z,94830.00
2018-06-08T14:15:47.047Z,94831.00
2018-06-08T14:18:17.015Z,94826.00
2018-06-08T14:20:46.995Z,94840.00
2018-06-08T14:23:17.045Z,94820.00
2018-06-08T14:25:47.111Z,94823.00
2018-06-08T14:28:17.126Z,94811.00
2018-06-08T14:30:47.942Z,94818.00
2018-06-08T14:33:17.170Z,94805.00
2018-06-08T14:35:47.230Z,94813.00
2018-06-08T14:38:17.400Z,94804.00
2018-06-08T14:40:47.384Z,94817.00
2018-06-08T14:43:17.460Z,94809.00
2018-06-08T14:45:47.471Z,94808.00
2018-06-08T14:48:17.488Z,94814.00
2018-06-08T14:50:47.534Z,94813.00
2018-06-08T14:53:17.510Z,94823.00
2018-06-08T14:55:47.515Z,94811.00
2018-06-08T14:58:16.667Z,94813.00
2018-06-08T15:00:45.884Z,94815.00
2018-06-08T15:03:14.966Z,94815.00
2018-06-08T15:05:44.120Z,94808.00
2018-06-08T15:08:13.242Z,94815.00
2018-06-08T15:10:42.434Z,94818.00
2018-06-08T15:13:11.621Z,94822.00
2018-06-08T15:15:40.822Z,94819.00
2018-06-08T15:18:09.946Z,94808.00
2018-06-08T15:20:39.185Z,94819.00
2018-06-08T15:23:08.492Z,94815.00
2018-06-08T15:25:37.416Z,94800.00
2018-06-08T15:28:06.588Z,94803.00
2018-06-08T15:30:35.732Z,94789.00
2018-06-08T15:33:04.955Z,94785.00
2018-06-08T15:35:34.237Z,94795.00
2018-06-08T15:38:03.408Z,94779.00
2018-06-08T15:40:32.483Z,94784.00
2018-06-08T15:43:01.386Z,94785.00
2018-06-08T15:45:30.543Z,94776.00
2018-06-08T15:47:59.901Z,94776.00
2018-06-08T15:50:30.404Z,94784.00
2018-06-08T15:52:59.638Z,94786.00
2018-06-08T15:55:28.806Z,94781.00
2018-06-08T15:57:57.976Z,94777.00
2018-06-08T16:00:27.163Z,94769.00
2018-06-08T16:02:56.397Z,94776.00
2018-06-08T16:05:25.568Z,94766.00
2018-06-08T16:07:55.185Z,94769.00
2018-06-08T16:10:24.368Z,94760.00
2018-06-08T16:12:53.488Z,94750.00
2018-06-08T16:15:22.664Z,94744.00
2018-06-08T16:17:51.805Z,94745.00
2018-06-08T16:20:20.983Z,94742.00
2018-06-08T16:22:50.275Z,94743.00
2018-06-08T16:25:19.478Z,94737.00
2018-06-08T16:27:49.031Z,94738.00
2018-06-08T16:30:19.210Z,94727.00
2018-06-08T16:32:49.158Z,94730.00
2018-06-08T16:35:21.695Z,94728.00
2018-06-08T16:37:50.750Z,94719.00
2018-06-08T16:40:19.890Z,94720.00
2018-06-08T16:42:49.381Z,94710.00
2018-06-08T16:45:19.348Z,94721.00
2018-06-08T16:47:49.446Z,94710.00
2018-06-08T16:50:19.720Z,94709.00
2018-06-08T16:52:49.502Z,94709.00
2018-06-08T16:55:19.539Z,94735.00
2018-06-08T16:57:49.549Z,94739.00
2018-06-08T17:00:19.590Z,94748.00
2018-06-08T17:02:49.673Z,94764.00
2018-06-08T17:05:19.699Z,94764.00
2018-06-08T17:07:49.782Z,94774.00
2018-06-08T17:10:19.752Z,94790.00
2018-06-08T17:12:49.827Z,94791.00
2018-06-08T17:15:19.823Z,94813.00
2018-06-08T17:17:49.826Z,94804.00
2018-06-08T17:20:19.818Z,94806.00
2018-06-08T17:22:50.001Z,94811.00
2018-06-08T17:25:20.014Z,94787.00
2018-06-08T17:27:50.090Z,94787.00
2018-06-08T17:30:20.020Z,94784.00
2018-06-08T17:32:50.123Z,94792.00
2018-06-08T17:35:19.834Z,94802.00
2018-06-08T17:37:49.955Z,94810.00
2018-06-08T17:40:20.208Z,94806.00
2018-06-08T17:42:50.170Z,94812.00
2018-06-08T17:45:20.298Z,94814.00
2018-06-08T17:47:50.084Z,94825.00
2018-06-08T17:50:20.360Z,94822.00
2018-06-08T17:52:50.357Z,94826.00
2018-06-08T17:55:20.237Z,94827.00
2018-06-08T17:57:50.370Z,94825.00
2018-06-08T18:00:20.348Z,94831.00
2018-06-08T18:02:50.468Z,94831.00
2018-06-08T18:05:20.409Z,94845.00
2018-06-08T18:07:50.309Z,94846.00
2018-06-08T18:10:20.409Z,94851.00
2018-06-08T18:12:50.431Z,94860.00
2018-06-08T18:15:20.454Z,94853.00
2018-06-08T18:17:50.590Z,94856.00
2018-06-08T18:20:20.538Z,94858.00
2018-06-08T18:22:50.633Z,94861.00
2018-06-08T18:25:20.578Z,94865.00
2018-06-08T18:27:50.651Z,94858.00
2018-06-08T18:30:20.666Z,94863.00
2018-06-08T18:32:50.614Z,94859.00
2018-06-08T18:35:20.484Z,94859.00
2018-06-08T18:37:50.794Z,94842.00
2018-06-08T18:40:20.647Z,94852.00
2018-06-08T18:42:50.781Z,94842.00
2018-06-08T18:45:20.772Z,94856.00
2018-06-08T18:47:50.890Z,94857.00
2018-06-08T18:50:20.798Z,94860.00
2018-06-08T18:52:50.929Z,94864.00
2018-06-08T18:55:20.826Z,94874.00
2018-06-08T18:57:51.032Z,94878.00
2018-06-08T19:00:20.975Z,94877.00
2018-06-08T19:02:51.085Z,94881.00
2018-06-08T19:05:20.937Z,94875.00
2018-06-08T19:07:51.738Z,94885.00
2018-06-08T19:10:20.865Z,94888.00
2018-06-08T19:12:50.879Z,94886.00
2018-06-08T19:15:21.090Z,94887.00
2018-06-08T19:17:51.090Z,94890.00
2018-06-08T19:20:22.361Z,94886.00
2018-06-08T19:22:51.546Z,94891.00
2018-06-08T19:25:21.178Z,94896.00
2018-06-08T19:27:51.885Z,94898.00
2018-06-08T19:30:21.111Z,94896.00
2018-06-08T19:32:51.238Z,94899.00
2018-06-08T19:35:21.166Z,94900.00
2018-06-08T19:37:51.285Z,94904.00
2018-06-08T19:40:21.210Z,94890.00
2018-06-08T19:42:51.298Z,94889.00
2018-06-08T19:45:21.268Z,94899.00
2018-06-08T19:47:51.286Z,94905.00
2018-06-08T19:50:21.254Z,94905.00
2018-06-08T19:52:51.456Z,94908.00
2018-06-08T19:55:21.350Z,94915.00
2018-06-08T19:57:51.375Z,94919.00
2018-06-08T20:00:21.455Z,94927.00
2018-06-08T20:02:51.432Z,94934.00
2018-06-08T20:05:21.394Z,94931.00
2018-06-08T20:07:51.553Z,94936.00
2018-06-08T20:10:21.419Z,94945.00
2018-06-08T20:12:51.387Z,94949.00
2018-06-08T20:15:21.713Z,94934.00
2018-06-08T20:17:51.656Z,94932.00
2018-06-08T20:20:21.647Z,94918.00
2018-06-08T20:22:51.635Z,94917.00
2018-06-08T20:25:21.582Z,94911.00
2018-06-08T20:27:51.694Z,94912.00
2018-06-08T20:30:21.775Z,94913.00
2018-06-08T20:32:51.721Z,94915.00
2018-06-08T20:35:21.751Z,94910.00
2018-06-08T20:37:51.828Z,94923.00
2018-06-08T20:40:21.812Z,94911.00
2018-06-08T20:42:51.874Z,94924.00
2018-06-08T20:45:21.894Z,94918.00
2018-06-08T20:47:51.873Z,94906.00
2018-06-08T20:50:21.903Z,94909.00
2018-06-08T20:52:51.991Z,94905.00
2018-06-08T20:55:22.684Z,94905.00
2018-06-08T20:58:00.726Z,94902.00
2018-06-08T21:00:29.882Z,94918.00
2018-06-08T21:02:59.013Z,94908.00
2018-06-08T21:05:28.237Z,94906.00
2018-06-08T21:07:57.512Z,94907.00
2018-06-08T21:10:26.937Z,94923.00
2018-06-08T21:12:56.162Z,94923.00
2018-06-08T21:15:25.381Z,94932.00
2018-06-08T21:17:55.166Z,94938.00
2018-06-08T21:20:24.309Z,94934.00
2018-06-08T21:22:53.419Z,94945.00
2018-06-08T21:25:22.550Z,94938.00
2018-06-08T21:27:52.218Z,94942.00
2018-06-08T21:30:22.113Z,94939.00
2018-06-08T21:32:52.590Z,94945.00
2018-06-08T21:35:22.562Z,94948.00
2018-06-08T21:37:52.342Z,94960.00
2018-06-08T21:40:22.365Z,94965.00
2018-06-08T21:42:52.488Z,94958.00
2018-06-08T21:45:22.494Z,94962.00
2018-06-08T21:47:52.602Z,94956.00
2018-06-08T21:50:22.619Z,94958.00
2018-06-08T21:52:52.583Z,94955.00
2018-06-08T21:55:22.647Z,94953.00
2018-06-08T21:57:52.655Z,94940.00
2018-06-08T22:00:22.503Z,94948.00
2018-06-08T22:02:52.417Z,94949.00
2018-06-08T22:05:22.555Z,94951.00
2018-06-08T22:07:52.791Z,94947.00
2018-06-08T22:10:22.756Z,94942.00
2018-06-08T22:12:52.790Z,94939.00
2018-06-08T22:15:22.918Z,94926.00
2018-06-08T22:17:52.838Z,94926.00
2018-06-08T22:20:22.814Z,94930.00
2018-06-08T22:22:52.904Z,94922.00
2018-06-08T22:25:22.978Z,94926.00
2018-06-08T22:27:52.908Z,94923.00
2018-06-08T22:30:23.037Z,94918.00
2018-06-08T22:32:53.773Z,94905.00
2018-06-08T22:35:23.050Z,94918.00
2018-06-08T22:37:53.042Z,94923.00
2018-06-08T22:40:23.155Z,94921.00
2018-06-08T22:42:53.085Z,94941.00
2018-06-08T22:45:23.199Z,94937.00
2018-06-08T22:47:53.347Z,94940.00
2018-06-08T22:50:23.309Z,94951.00
2018-06-08T22:52:53.380Z,94958.00
2018-06-08T22:55:23.214Z,94960.00
2018-06-08T22:57:53.404Z,94945.00
2018-06-08T23:00:23.336Z,94950.00
2018-06-08T23:02:53.394Z,94947.00
2018-06-08T23:05:23.287Z,94940.00
2018-06-08T23:07:53.417Z,94938.00
2018-06-08T23:10:23.350Z,94931.00
2018-06-08T23:12:53.434Z,94931.00
2018-06-08T23:15:23.501Z,94946.00
2018-06-08T23:17:53.516Z,94955.00
2018-06-08T23:20:23.530Z,94957.00
2018-06-08T23:22:54.845Z,94946.00
2018-06-08T23:25:23.885Z,94954.00
2018-06-08T23:27:54.858Z,94947.00
2018-06-08T23:30:24.043Z,94952.00
2018-06-08T23:32:54.842Z,94952.00
2018-06-08T23:35:24.018Z,94954.00
2018-06-08T23:37:54.908Z,94942.00
2018-06-08T23:40:24.138Z,94950.00
2018-06-08T23:42:54.740Z,94957.00
2018-06-08T23:45:23.842Z,94949.00
2018-06-08T23:47:55.115Z,94957.00
2018-06-08T23:50:24.266Z,94962.00
2018-06-08T23:52:54.889Z,94967.00
2018-06-08T23:55:24.054Z,94966.00
2018-06-08T23:57:55.230Z,94972.00
